SHT18K EGLL-EGPD
Flight info
| Callsign | SHT18K |
|---|---|
| Flight time | 0h 57m |
| Altitude | 34000 |
| Route | ULTIB1J ULTIB T420 AKUPA UY250 KEFTE DCT AGPED/N0436F330 DCT MADAD/N0398F240 P18 EPCAN DCT |
| Aircraft | A320/M-SDE3FGIJ1KRWXY/SB1 |
Departure
| Time | 2026-05-09 07:37 |
|---|---|
| Airport | London Heathrow Airport (EGLL) |
Arrival
| Time | 2026-05-09 08:34 |
|---|---|
| Airport | Aberdeen International Airport (EGPD) |
| Time | Latitude | Longitude | Altitude | Speed | Heading |
|---|---|---|---|---|---|
| 2026-05-09 06:56 | 51.47417 | -0.48953 | 86 ft | 0 kts | 180° |
| 2026-05-09 07:27 | 51.47432 | -0.48953 | 86 ft | 4 kts | 180° |
| 2026-05-09 07:27 | 51.47459 | -0.48954 | 86 ft | 4 kts | 180° |
| 2026-05-09 07:27 | 51.47486 | -0.48954 | 90 ft | 4 kts | 180° |
| 2026-05-09 07:28 | 51.47507 | -0.48954 | 90 ft | 0 kts | 180° |
| 2026-05-09 07:33 | 51.47505 | -0.48954 | 86 ft | 2 kts | 177° |
| 2026-05-09 07:34 | 51.47483 | -0.48888 | 89 ft | 10 kts | 94° |
| 2026-05-09 07:34 | 51.47486 | -0.48757 | 90 ft | 13 kts | 89° |
| 2026-05-09 07:34 | 51.47487 | -0.48598 | 89 ft | 16 kts | 90° |
| 2026-05-09 07:34 | 51.47433 | -0.48477 | 89 ft | 17 kts | 174° |
| 2026-05-09 07:35 | 51.47308 | -0.48474 | 86 ft | 19 kts | 180° |
| 2026-05-09 07:35 | 51.47161 | -0.48473 | 86 ft | 22 kts | 180° |
| 2026-05-09 07:35 | 51.47002 | -0.48473 | 89 ft | 21 kts | 180° |
| 2026-05-09 07:35 | 51.46865 | -0.48472 | 86 ft | 19 kts | 180° |
| 2026-05-09 07:36 | 51.46744 | -0.48472 | 88 ft | 18 kts | 179° |
| 2026-05-09 07:36 | 51.46611 | -0.48469 | 86 ft | 18 kts | 180° |
| 2026-05-09 07:36 | 51.46503 | -0.48456 | 90 ft | 15 kts | 151° |
| 2026-05-09 07:36 | 51.46479 | -0.48290 | 91 ft | 19 kts | 91° |
| 2026-05-09 07:37 | 51.46482 | -0.47620 | 86 ft | 104 kts | 90° |
| 2026-05-09 07:37 | 51.46490 | -0.46076 | 115 ft | 167 kts | 89° |
| 2026-05-09 07:37 | 51.46488 | -0.44145 | 794 ft | 178 kts | 89° |
| 2026-05-09 07:37 | 51.46521 | -0.42061 | 1354 ft | 200 kts | 83° |
| 2026-05-09 07:38 | 51.46915 | -0.39743 | 1577 ft | 231 kts | 65° |
| 2026-05-09 07:38 | 51.47817 | -0.37455 | 2032 ft | 256 kts | 52° |
| 2026-05-09 07:38 | 51.48963 | -0.35236 | 2994 ft | 255 kts | 52° |
| 2026-05-09 07:38 | 51.50100 | -0.33103 | 4085 ft | 253 kts | 52° |
| 2026-05-09 07:39 | 51.51245 | -0.30921 | 4981 ft | 259 kts | 53° |
| 2026-05-09 07:39 | 51.52372 | -0.28664 | 5911 ft | 262 kts | 56° |
| 2026-05-09 07:39 | 51.53245 | -0.26106 | 6746 ft | 266 kts | 71° |
| 2026-05-09 07:39 | 51.53832 | -0.23269 | 7661 ft | 270 kts | 68° |
| 2026-05-09 07:40 | 51.54984 | -0.20888 | 8268 ft | 283 kts | 35° |
| 2026-05-09 07:40 | 51.56841 | -0.19845 | 9041 ft | 289 kts | 2° |
| 2026-05-09 07:40 | 51.58828 | -0.20405 | 9843 ft | 293 kts | 340° |
| 2026-05-09 07:40 | 51.60735 | -0.21665 | 10457 ft | 305 kts | 332° |
| 2026-05-09 07:41 | 51.62488 | -0.23815 | 10667 ft | 328 kts | 316° |
| 2026-05-09 07:41 | 51.64208 | -0.26377 | 11049 ft | 343 kts | 320° |
| 2026-05-09 07:41 | 51.66161 | -0.28659 | 11697 ft | 349 kts | 327° |
| 2026-05-09 07:41 | 51.68262 | -0.30674 | 12385 ft | 353 kts | 330° |
| 2026-05-09 07:42 | 51.70428 | -0.32576 | 13079 ft | 356 kts | 331° |
| 2026-05-09 07:42 | 51.72616 | -0.34474 | 13760 ft | 359 kts | 330° |
| 2026-05-09 07:42 | 51.74812 | -0.36430 | 14050 ft | 360 kts | 329° |
| 2026-05-09 07:42 | 51.76986 | -0.38441 | 14126 ft | 360 kts | 328° |
| 2026-05-09 07:43 | 51.79116 | -0.40469 | 14137 ft | 360 kts | 328° |
| 2026-05-09 07:43 | 51.81271 | -0.42560 | 14134 ft | 359 kts | 328° |
| 2026-05-09 07:43 | 51.83410 | -0.44656 | 14140 ft | 359 kts | 328° |
| 2026-05-09 07:43 | 51.85546 | -0.46750 | 14139 ft | 359 kts | 327° |
| 2026-05-09 07:44 | 51.87685 | -0.48847 | 14138 ft | 360 kts | 327° |
| 2026-05-09 07:44 | 51.89829 | -0.50945 | 14149 ft | 360 kts | 328° |
| 2026-05-09 07:44 | 51.91975 | -0.53038 | 14142 ft | 360 kts | 328° |
| 2026-05-09 07:44 | 51.94119 | -0.55131 | 14139 ft | 360 kts | 328° |
| 2026-05-09 07:45 | 51.96241 | -0.57196 | 14156 ft | 360 kts | 328° |
| 2026-05-09 07:45 | 51.98386 | -0.59284 | 14155 ft | 359 kts | 328° |
| 2026-05-09 07:45 | 52.00526 | -0.61374 | 14162 ft | 359 kts | 328° |
| 2026-05-09 07:45 | 52.02670 | -0.63473 | 14165 ft | 359 kts | 327° |
| 2026-05-09 07:46 | 52.04809 | -0.65572 | 14165 ft | 359 kts | 327° |
| 2026-05-09 07:46 | 52.06960 | -0.67690 | 14649 ft | 363 kts | 327° |
| 2026-05-09 07:46 | 52.09124 | -0.69821 | 15355 ft | 364 kts | 327° |
| 2026-05-09 07:46 | 52.11299 | -0.71964 | 15994 ft | 366 kts | 326° |
| 2026-05-09 07:47 | 52.13485 | -0.74117 | 16576 ft | 368 kts | 326° |
| 2026-05-09 07:47 | 52.15685 | -0.76285 | 17165 ft | 371 kts | 326° |
| 2026-05-09 07:47 | 52.17907 | -0.78478 | 17740 ft | 374 kts | 326° |
| 2026-05-09 07:47 | 52.20140 | -0.80686 | 18313 ft | 377 kts | 326° |
| 2026-05-09 07:48 | 52.22391 | -0.82914 | 18878 ft | 380 kts | 326° |
| 2026-05-09 07:48 | 52.24660 | -0.85166 | 19417 ft | 384 kts | 326° |
| 2026-05-09 07:48 | 52.26956 | -0.87446 | 19942 ft | 388 kts | 325° |
| 2026-05-09 07:48 | 52.29282 | -0.89755 | 20452 ft | 392 kts | 325° |
| 2026-05-09 07:49 | 52.31632 | -0.92090 | 20938 ft | 397 kts | 325° |
| 2026-05-09 07:49 | 52.33996 | -0.94444 | 21390 ft | 399 kts | 325° |
| 2026-05-09 07:49 | 52.36379 | -0.96815 | 21807 ft | 402 kts | 325° |
| 2026-05-09 07:49 | 52.38749 | -0.99167 | 22176 ft | 406 kts | 325° |
| 2026-05-09 07:50 | 52.41175 | -1.01586 | 22575 ft | 410 kts | 325° |
| 2026-05-09 07:50 | 52.43628 | -1.04039 | 23013 ft | 415 kts | 325° |
| 2026-05-09 07:50 | 52.46171 | -1.06346 | 23432 ft | 421 kts | 332° |
| 2026-05-09 07:50 | 52.48959 | -1.07951 | 23836 ft | 429 kts | 343° |
| 2026-05-09 07:51 | 52.51927 | -1.08732 | 24217 ft | 437 kts | 354° |
| 2026-05-09 07:51 | 52.54987 | -1.08672 | 24613 ft | 440 kts | 0° |
| 2026-05-09 07:51 | 52.58071 | -1.08428 | 25024 ft | 445 kts | 0° |
| 2026-05-09 07:51 | 52.61166 | -1.08188 | 25451 ft | 447 kts | 0° |
| 2026-05-09 07:52 | 52.64285 | -1.07954 | 25859 ft | 449 kts | 0° |
| 2026-05-09 07:52 | 52.67419 | -1.07719 | 26255 ft | 451 kts | 0° |
| 2026-05-09 07:52 | 52.70553 | -1.07483 | 26639 ft | 453 kts | 0° |
| 2026-05-09 07:52 | 52.73710 | -1.07392 | 27010 ft | 453 kts | 354° |
| 2026-05-09 07:53 | 52.76836 | -1.08011 | 27383 ft | 452 kts | 346° |
| 2026-05-09 07:53 | 52.79905 | -1.08946 | 27750 ft | 454 kts | 346° |
| 2026-05-09 07:53 | 52.83016 | -1.09899 | 28127 ft | 456 kts | 346° |
| 2026-05-09 07:53 | 52.86142 | -1.10859 | 28490 ft | 458 kts | 346° |
| 2026-05-09 07:54 | 52.89286 | -1.11820 | 28841 ft | 460 kts | 346° |
| 2026-05-09 07:54 | 52.92443 | -1.12780 | 29189 ft | 462 kts | 346° |
| 2026-05-09 07:54 | 52.95613 | -1.13745 | 29515 ft | 464 kts | 346° |
| 2026-05-09 07:54 | 52.98799 | -1.14719 | 29843 ft | 466 kts | 346° |
| 2026-05-09 07:55 | 53.02008 | -1.15701 | 30191 ft | 467 kts | 346° |
| 2026-05-09 07:55 | 53.05209 | -1.16687 | 30653 ft | 466 kts | 346° |
| 2026-05-09 07:55 | 53.08350 | -1.17655 | 31104 ft | 464 kts | 346° |
| 2026-05-09 07:55 | 53.11520 | -1.18630 | 31547 ft | 463 kts | 346° |
| 2026-05-09 07:56 | 53.14696 | -1.19603 | 31989 ft | 462 kts | 346° |
| 2026-05-09 07:56 | 53.17849 | -1.20575 | 32433 ft | 461 kts | 345° |
| 2026-05-09 07:56 | 53.20998 | -1.21549 | 32875 ft | 459 kts | 345° |
| 2026-05-09 07:56 | 53.24144 | -1.22521 | 33306 ft | 458 kts | 345° |
| 2026-05-09 07:57 | 53.27284 | -1.23491 | 33744 ft | 457 kts | 345° |
| 2026-05-09 07:57 | 53.30407 | -1.24453 | 34069 ft | 457 kts | 345° |
| 2026-05-09 07:57 | 53.33534 | -1.25421 | 34140 ft | 457 kts | 345° |
| 2026-05-09 07:58 | 53.39754 | -1.27371 | 34144 ft | 457 kts | 345° |
| 2026-05-09 07:58 | 53.46102 | -1.28559 | 34137 ft | 460 kts | 352° |
| 2026-05-09 07:59 | 53.52489 | -1.29323 | 34155 ft | 461 kts | 352° |
| 2026-05-09 07:59 | 53.58735 | -1.31125 | 34157 ft | 451 kts | 336° |
| 2026-05-09 08:00 | 53.64285 | -1.35726 | 34160 ft | 442 kts | 324° |
| 2026-05-09 08:00 | 53.69557 | -1.41088 | 34166 ft | 442 kts | 324° |
| 2026-05-09 08:01 | 53.74833 | -1.46434 | 34177 ft | 442 kts | 324° |
| 2026-05-09 08:01 | 53.80113 | -1.51797 | 34189 ft | 442 kts | 324° |
| 2026-05-09 08:02 | 53.85375 | -1.57174 | 34198 ft | 442 kts | 323° |
| 2026-05-09 08:02 | 53.90596 | -1.62540 | 34208 ft | 442 kts | 323° |
| 2026-05-09 08:03 | 53.95857 | -1.67960 | 34219 ft | 442 kts | 323° |
| 2026-05-09 08:03 | 54.01260 | -1.72981 | 34209 ft | 447 kts | 334° |
| 2026-05-09 08:04 | 54.07396 | -1.75321 | 34201 ft | 458 kts | 349° |
| 2026-05-09 08:04 | 54.13735 | -1.76457 | 34200 ft | 458 kts | 349° |
| 2026-05-09 08:05 | 54.20081 | -1.77604 | 34201 ft | 458 kts | 349° |
| 2026-05-09 08:05 | 54.26376 | -1.78773 | 34202 ft | 458 kts | 348° |
| 2026-05-09 08:06 | 54.32726 | -1.79956 | 34215 ft | 458 kts | 349° |
| 2026-05-09 08:06 | 54.39058 | -1.81117 | 34209 ft | 458 kts | 349° |
| 2026-05-09 08:07 | 54.45394 | -1.82288 | 34207 ft | 458 kts | 348° |
| 2026-05-09 08:07 | 54.51733 | -1.83471 | 34214 ft | 458 kts | 348° |
| 2026-05-09 08:08 | 54.58033 | -1.84648 | 34223 ft | 458 kts | 348° |
| 2026-05-09 08:08 | 54.64375 | -1.85842 | 34222 ft | 457 kts | 348° |
| 2026-05-09 08:09 | 54.70709 | -1.87033 | 34224 ft | 457 kts | 348° |
| 2026-05-09 08:09 | 54.77038 | -1.88229 | 34225 ft | 458 kts | 348° |
| 2026-05-09 08:10 | 54.83380 | -1.89424 | 34233 ft | 458 kts | 348° |
| 2026-05-09 08:10 | 54.89707 | -1.90620 | 34231 ft | 457 kts | 347° |
| 2026-05-09 08:11 | 54.96041 | -1.91825 | 34229 ft | 457 kts | 347° |
| 2026-05-09 08:11 | 55.02361 | -1.93042 | 34230 ft | 457 kts | 347° |
| 2026-05-09 08:12 | 55.11838 | -1.94622 | 34228 ft | 463 kts | 354° |
| 2026-05-09 08:12 | 55.18317 | -1.93294 | 34224 ft | 470 kts | 2° |
| 2026-05-09 08:13 | 55.24783 | -1.91540 | 34233 ft | 471 kts | 2° |
| 2026-05-09 08:13 | 55.31260 | -1.89810 | 34218 ft | 471 kts | 2° |
| 2026-05-09 08:14 | 55.37736 | -1.88074 | 34212 ft | 471 kts | 2° |
| 2026-05-09 08:14 | 55.44231 | -1.86323 | 34014 ft | 472 kts | 1° |
| 2026-05-09 08:15 | 55.47476 | -1.85444 | 33761 ft | 472 kts | 1° |
| 2026-05-09 08:15 | 55.50737 | -1.84561 | 33214 ft | 474 kts | 1° |
| 2026-05-09 08:15 | 55.52908 | -1.83976 | 32494 ft | 481 kts | 2° |
| 2026-05-09 08:15 | 55.57333 | -1.82783 | 31248 ft | 488 kts | 2° |
| 2026-05-09 08:16 | 55.60667 | -1.81865 | 30733 ft | 482 kts | 2° |
| 2026-05-09 08:16 | 55.63980 | -1.80946 | 30088 ft | 480 kts | 2° |
| 2026-05-09 08:16 | 55.66202 | -1.80330 | 29661 ft | 478 kts | 2° |
| 2026-05-09 08:16 | 55.69478 | -1.79423 | 29023 ft | 475 kts | 2° |
| 2026-05-09 08:17 | 55.72686 | -1.78542 | 28395 ft | 472 kts | 3° |
| 2026-05-09 08:17 | 55.75928 | -1.77657 | 27767 ft | 469 kts | 3° |
| 2026-05-09 08:17 | 55.79136 | -1.76778 | 27153 ft | 465 kts | 3° |
| 2026-05-09 08:17 | 55.82325 | -1.75896 | 26532 ft | 462 kts | 3° |
| 2026-05-09 08:18 | 55.85494 | -1.75019 | 25923 ft | 459 kts | 4° |
| 2026-05-09 08:18 | 55.88648 | -1.74158 | 25332 ft | 454 kts | 2° |
| 2026-05-09 08:18 | 55.91755 | -1.73924 | 24769 ft | 441 kts | 351° |
| 2026-05-09 08:18 | 55.94750 | -1.74668 | 24294 ft | 427 kts | 342° |
| 2026-05-09 08:19 | 55.97649 | -1.75750 | 23710 ft | 425 kts | 342° |
| 2026-05-09 08:19 | 56.00535 | -1.76814 | 23207 ft | 421 kts | 342° |
| 2026-05-09 08:19 | 56.03390 | -1.77859 | 22703 ft | 417 kts | 342° |
| 2026-05-09 08:19 | 56.06218 | -1.78893 | 22201 ft | 413 kts | 342° |
| 2026-05-09 08:20 | 56.08987 | -1.79909 | 21724 ft | 410 kts | 343° |
| 2026-05-09 08:20 | 56.11803 | -1.80951 | 21205 ft | 406 kts | 342° |
| 2026-05-09 08:20 | 56.14523 | -1.81965 | 20711 ft | 403 kts | 342° |
| 2026-05-09 08:20 | 56.17260 | -1.82990 | 20191 ft | 400 kts | 343° |
| 2026-05-09 08:21 | 56.20012 | -1.84020 | 19656 ft | 397 kts | 343° |
| 2026-05-09 08:21 | 56.22713 | -1.85027 | 19090 ft | 395 kts | 343° |
| 2026-05-09 08:21 | 56.25365 | -1.86016 | 18530 ft | 393 kts | 343° |
| 2026-05-09 08:21 | 56.28033 | -1.87014 | 17950 ft | 391 kts | 343° |
| 2026-05-09 08:22 | 56.30685 | -1.88012 | 17377 ft | 388 kts | 343° |
| 2026-05-09 08:22 | 56.33334 | -1.89010 | 16799 ft | 386 kts | 343° |
| 2026-05-09 08:22 | 56.35954 | -1.89997 | 16231 ft | 383 kts | 343° |
| 2026-05-09 08:22 | 56.38560 | -1.90981 | 15658 ft | 380 kts | 343° |
| 2026-05-09 08:23 | 56.41137 | -1.91953 | 15095 ft | 377 kts | 344° |
| 2026-05-09 08:23 | 56.43705 | -1.92922 | 14543 ft | 374 kts | 344° |
| 2026-05-09 08:23 | 56.46249 | -1.93885 | 13969 ft | 372 kts | 344° |
| 2026-05-09 08:23 | 56.48733 | -1.94824 | 13404 ft | 368 kts | 344° |
| 2026-05-09 08:24 | 56.51236 | -1.95773 | 12845 ft | 365 kts | 344° |
| 2026-05-09 08:24 | 56.53710 | -1.96708 | 12291 ft | 361 kts | 344° |
| 2026-05-09 08:24 | 56.56161 | -1.97637 | 11718 ft | 358 kts | 344° |
| 2026-05-09 08:24 | 56.58584 | -1.98565 | 11184 ft | 354 kts | 345° |
| 2026-05-09 08:25 | 56.60990 | -1.99490 | 10702 ft | 351 kts | 345° |
| 2026-05-09 08:25 | 56.63327 | -2.00386 | 10565 ft | 336 kts | 345° |
| 2026-05-09 08:25 | 56.65577 | -2.01245 | 10441 ft | 324 kts | 345° |
| 2026-05-09 08:25 | 56.67747 | -2.02071 | 10311 ft | 313 kts | 345° |
| 2026-05-09 08:26 | 56.69848 | -2.02871 | 10182 ft | 304 kts | 345° |
| 2026-05-09 08:26 | 56.71897 | -2.03655 | 9956 ft | 298 kts | 345° |
| 2026-05-09 08:26 | 56.73925 | -2.04436 | 9602 ft | 297 kts | 346° |
| 2026-05-09 08:26 | 56.75946 | -2.05213 | 9288 ft | 296 kts | 346° |
| 2026-05-09 08:27 | 56.77957 | -2.05986 | 8982 ft | 294 kts | 346° |
| 2026-05-09 08:27 | 56.79947 | -2.06756 | 8636 ft | 290 kts | 346° |
| 2026-05-09 08:27 | 56.81912 | -2.07514 | 8045 ft | 287 kts | 346° |
| 2026-05-09 08:27 | 56.83832 | -2.08253 | 7482 ft | 284 kts | 346° |
| 2026-05-09 08:28 | 56.85753 | -2.08992 | 6923 ft | 280 kts | 346° |
| 2026-05-09 08:28 | 56.87651 | -2.09727 | 6355 ft | 276 kts | 346° |
| 2026-05-09 08:28 | 56.89521 | -2.10456 | 5796 ft | 273 kts | 347° |
| 2026-05-09 08:28 | 56.91364 | -2.11173 | 5244 ft | 269 kts | 347° |
| 2026-05-09 08:29 | 56.93206 | -2.11593 | 4688 ft | 266 kts | 359° |
| 2026-05-09 08:29 | 56.95046 | -2.11466 | 4132 ft | 263 kts | 1° |
| 2026-05-09 08:29 | 56.96864 | -2.11333 | 3531 ft | 262 kts | 1° |
| 2026-05-09 08:29 | 56.98636 | -2.11209 | 3257 ft | 247 kts | 1° |
| 2026-05-09 08:30 | 57.00287 | -2.11089 | 3123 ft | 228 kts | 1° |
| 2026-05-09 08:30 | 57.01806 | -2.10980 | 3017 ft | 209 kts | 1° |
| 2026-05-09 08:30 | 57.03228 | -2.10882 | 2929 ft | 203 kts | 1° |
| 2026-05-09 08:30 | 57.04637 | -2.10786 | 2838 ft | 202 kts | 0° |
| 2026-05-09 08:31 | 57.06042 | -2.10692 | 2761 ft | 203 kts | 1° |
| 2026-05-09 08:31 | 57.07437 | -2.10660 | 2670 ft | 198 kts | 352° |
| 2026-05-09 08:31 | 57.08741 | -2.11345 | 2463 ft | 195 kts | 338° |
| 2026-05-09 08:31 | 57.09996 | -2.12269 | 2240 ft | 194 kts | 337° |
| 2026-05-09 08:32 | 57.11230 | -2.13180 | 1971 ft | 185 kts | 338° |
| 2026-05-09 08:32 | 57.12350 | -2.14004 | 1739 ft | 166 kts | 338° |
| 2026-05-09 08:32 | 57.14257 | -2.15391 | 1375 ft | 134 kts | 337° |
| 2026-05-09 08:33 | 57.15108 | -2.16000 | 1110 ft | 130 kts | 336° |
| 2026-05-09 08:33 | 57.15931 | -2.16630 | 919 ft | 128 kts | 336° |
| 2026-05-09 08:33 | 57.16759 | -2.17235 | 726 ft | 128 kts | 336° |
| 2026-05-09 08:33 | 57.17580 | -2.17850 | 625 ft | 128 kts | 336° |
| 2026-05-09 08:34 | 57.18410 | -2.18459 | 426 ft | 127 kts | 337° |
| 2026-05-09 08:34 | 57.19239 | -2.19075 | 295 ft | 129 kts | 338° |
| 2026-05-09 08:34 | 57.20037 | -2.19665 | 219 ft | 109 kts | 339° |
| 2026-05-09 08:34 | 57.20445 | -2.19958 | 216 ft | 21 kts | 338° |
| 2026-05-09 08:35 | 57.20576 | -2.20060 | 217 ft | 15 kts | 325° |
| 2026-05-09 08:35 | 57.20555 | -2.20203 | 220 ft | 11 kts | 229° |
| 2026-05-09 08:35 | 57.20499 | -2.20320 | 222 ft | 9 kts | 227° |
| 2026-05-09 08:35 | 57.20449 | -2.20388 | 217 ft | 9 kts | 195° |
| 2026-05-09 08:36 | 57.20384 | -2.20357 | 222 ft | 11 kts | 157° |
| 2026-05-09 08:36 | 57.20316 | -2.20307 | 222 ft | 10 kts | 159° |
| 2026-05-09 08:36 | 57.20289 | -2.20288 | 221 ft | 1 kts | 160° |
| 2026-05-09 08:36 | 57.20267 | -2.20274 | 223 ft | 6 kts | 160° |
| 2026-05-09 08:37 | 57.20215 | -2.20238 | 221 ft | 9 kts | 158° |
| 2026-05-09 08:37 | 57.20177 | -2.20209 | 221 ft | 3 kts | 159° |
| 2026-05-09 08:37 | 57.20155 | -2.20227 | 223 ft | 5 kts | 227° |
| 2026-05-09 08:37 | 57.20139 | -2.20279 | 221 ft | 2 kts | 248° |
| 2026-05-09 08:38 | 57.20135 | -2.20301 | 223 ft | 0 kts | 250° |